createdAt,value
2023-05-06T00:02:05.321Z,2.00
2023-05-06T00:04:32.798Z,1.90
2023-05-06T00:07:00.622Z,1.77
2023-05-06T00:09:28.137Z,1.48
2023-05-06T00:11:55.400Z,1.65
2023-05-06T00:14:22.700Z,2.08
2023-05-06T00:16:51.460Z,1.67
2023-05-06T00:19:18.923Z,1.88
2023-05-06T00:21:46.203Z,2.15
2023-05-06T00:24:13.569Z,1.67
2023-05-06T00:26:40.789Z,1.92
2023-05-06T00:29:08.128Z,1.85
2023-05-06T00:31:35.633Z,2.45
2023-05-06T00:34:02.851Z,1.75
2023-05-06T00:36:30.219Z,1.70
2023-05-06T00:38:57.386Z,2.10
2023-05-06T00:41:24.634Z,1.67
2023-05-06T00:43:53.035Z,1.42
2023-05-06T00:46:20.512Z,1.92
2023-05-06T00:48:47.930Z,2.42
2023-05-06T00:51:15.939Z,1.70
2023-05-06T00:53:43.112Z,2.88
2023-05-06T00:56:10.509Z,2.33
2023-05-06T00:58:37.666Z,3.47
2023-05-06T01:01:04.909Z,2.00
2023-05-06T01:03:32.384Z,2.58
2023-05-06T01:05:59.705Z,1.70
2023-05-06T01:08:27.229Z,2.00
2023-05-06T01:10:54.499Z,3.80
2023-05-06T01:13:22.514Z,2.83
2023-05-06T01:15:49.780Z,1.65
2023-05-06T01:18:17.437Z,1.50
2023-05-06T01:20:44.696Z,2.30
2023-05-06T01:23:12.084Z,2.53
2023-05-06T01:25:39.355Z,2.60
2023-05-06T01:28:10.282Z,1.75
2023-05-06T01:30:37.499Z,2.08
2023-05-06T01:33:04.918Z,2.20
2023-05-06T01:35:33.148Z,1.65
2023-05-06T01:38:00.360Z,2.60
2023-05-06T01:40:28.158Z,2.10
2023-05-06T01:42:55.540Z,1.85
2023-05-06T01:45:22.743Z,2.13
2023-05-06T01:47:50.030Z,2.00
2023-05-06T01:50:17.366Z,2.03
2023-05-06T01:52:44.593Z,3.25
2023-05-06T01:55:12.804Z,1.92
2023-05-06T01:57:39.955Z,2.63
2023-05-06T02:00:07.268Z,2.35
2023-05-06T02:02:39.478Z,2.42
2023-05-06T02:05:07.463Z,2.78
2023-05-06T02:07:38.722Z,2.03
2023-05-06T02:10:06.159Z,2.40
2023-05-06T02:12:35.737Z,3.20
2023-05-06T02:15:04.164Z,2.35
2023-05-06T02:17:31.448Z,2.63
2023-05-06T02:19:58.728Z,1.95
2023-05-06T02:22:26.000Z,2.67
2023-05-06T02:24:53.269Z,2.42
2023-05-06T02:27:20.612Z,2.40
2023-05-06T02:29:48.433Z,2.67
2023-05-06T02:32:15.838Z,2.63
2023-05-06T02:34:43.143Z,2.90
2023-05-06T02:37:10.350Z,2.53
2023-05-06T02:39:37.702Z,2.55
2023-05-06T02:42:04.935Z,3.00
2023-05-06T02:44:32.365Z,3.03
2023-05-06T02:46:59.591Z,2.88
2023-05-06T02:49:26.826Z,2.80
2023-05-06T02:51:54.096Z,2.53
2023-05-06T02:54:21.454Z,2.08
2023-05-06T02:56:48.819Z,2.75
2023-05-06T02:59:16.080Z,3.15
2023-05-06T03:01:43.336Z,3.03
2023-05-06T03:04:11.599Z,2.75
2023-05-06T03:06:38.891Z,4.10
2023-05-06T03:09:06.166Z,3.10
2023-05-06T03:11:33.961Z,2.90
2023-05-06T03:14:04.561Z,2.40
2023-05-06T03:16:32.070Z,2.20
2023-05-06T03:19:00.570Z,2.80
2023-05-06T03:21:28.680Z,2.70
2023-05-06T03:23:56.066Z,2.88
2023-05-06T03:26:25.267Z,2.30
2023-05-06T03:28:52.963Z,2.65
2023-05-06T03:31:22.208Z,2.50
2023-05-06T03:33:49.541Z,3.10
2023-05-06T03:36:17.422Z,2.67
2023-05-06T03:38:47.054Z,3.25
2023-05-06T03:41:14.918Z,3.78
2023-05-06T03:43:42.258Z,2.38
2023-05-06T03:46:11.363Z,2.58
2023-05-06T03:48:39.633Z,2.45
2023-05-06T03:51:10.704Z,2.55
2023-05-06T03:53:38.149Z,2.97
2023-05-06T03:56:05.437Z,2.40
2023-05-06T03:58:33.921Z,4.07
2023-05-06T04:01:02.295Z,3.08
2023-05-06T04:03:29.623Z,2.67
2023-05-06T04:05:56.995Z,3.90
2023-05-06T04:08:26.564Z,2.90
2023-05-06T04:10:54.908Z,3.63
2023-05-06T04:13:28.407Z,3.00
2023-05-06T04:15:58.508Z,2.83
2023-05-06T04:18:32.811Z,2.88
2023-05-06T04:21:05.711Z,3.97
2023-05-06T04:23:35.865Z,3.08
2023-05-06T04:26:03.761Z,2.30
2023-05-06T04:28:33.201Z,3.63
2023-05-06T04:31:02.957Z,2.88
2023-05-06T04:33:40.093Z,3.00
2023-05-06T04:36:11.653Z,2.78
2023-05-06T04:38:43.773Z,2.25
2023-05-06T04:41:12.064Z,2.90
2023-05-06T04:43:39.504Z,3.00
2023-05-06T04:46:15.618Z,3.63
2023-05-06T04:48:44.094Z,2.67
2023-05-06T04:51:13.397Z,2.58
2023-05-06T04:53:41.371Z,2.53
2023-05-06T04:56:09.044Z,2.63
2023-05-06T04:58:37.290Z,2.47
2023-05-06T05:01:04.579Z,2.55
2023-05-06T05:03:32.095Z,2.83
2023-05-06T05:05:59.550Z,2.33
2023-05-06T05:08:27.856Z,2.58
2023-05-06T05:10:57.593Z,2.78
2023-05-06T05:13:27.104Z,2.97
2023-05-06T05:15:56.343Z,2.90
2023-05-06T05:18:26.769Z,2.63
2023-05-06T05:20:57.421Z,4.03
2023-05-06T05:23:27.931Z,2.40
2023-05-06T05:25:55.994Z,1.90
2023-05-06T05:28:23.723Z,2.72
2023-05-06T05:30:51.905Z,2.03
2023-05-06T05:33:19.607Z,2.13
2023-05-06T05:35:47.156Z,2.78
2023-05-06T05:38:15.536Z,2.10
2023-05-06T05:40:43.712Z,2.53
2023-05-06T05:43:11.237Z,2.38
2023-05-06T05:45:40.776Z,2.33
2023-05-06T05:48:10.092Z,3.13
2023-05-06T05:50:37.625Z,2.47
2023-05-06T05:53:06.201Z,2.38
2023-05-06T05:55:36.109Z,2.47
2023-05-06T05:58:03.376Z,2.33
2023-05-06T06:00:31.808Z,2.13
2023-05-06T06:03:06.913Z,1.98
2023-05-06T06:05:34.400Z,2.28
2023-05-06T06:08:03.624Z,1.70
2023-05-06T06:10:32.143Z,1.90
2023-05-06T06:13:03.209Z,1.70
2023-05-06T06:15:32.882Z,2.00
2023-05-06T06:18:00.258Z,2.15
2023-05-06T06:20:29.168Z,1.80
2023-05-06T06:22:56.562Z,1.63
2023-05-06T06:25:23.921Z,1.77
2023-05-06T06:27:51.324Z,2.53
2023-05-06T06:30:18.634Z,2.10
2023-05-06T06:32:45.985Z,1.83
2023-05-06T06:35:13.360Z,2.65
2023-05-06T06:37:40.897Z,2.90
2023-05-06T06:40:08.432Z,1.83
2023-05-06T06:42:36.171Z,2.13
2023-05-06T06:45:24.003Z,2.08
2023-05-06T06:47:51.363Z,1.85
2023-05-06T06:50:18.599Z,2.30
2023-05-06T06:52:47.217Z,2.30
2023-05-06T06:55:14.526Z,2.17
2023-05-06T06:57:41.772Z,2.53
2023-05-06T07:00:09.186Z,2.65
2023-05-06T07:02:36.488Z,2.28
2023-05-06T07:05:03.920Z,2.17
2023-05-06T07:07:31.257Z,3.60
2023-05-06T07:09:58.448Z,2.10
2023-05-06T07:12:26.862Z,2.45
2023-05-06T07:14:54.088Z,3.17
2023-05-06T07:17:21.394Z,2.60
2023-05-06T07:19:48.580Z,2.75
2023-05-06T07:22:15.868Z,2.47
2023-05-06T07:24:43.098Z,2.40
2023-05-06T07:27:10.379Z,2.17
2023-05-06T07:29:37.616Z,1.88
2023-05-06T07:32:04.915Z,1.80
2023-05-06T07:34:34.159Z,1.80
2023-05-06T07:37:01.881Z,1.90
2023-05-06T07:39:29.112Z,1.65
2023-05-06T07:41:56.416Z,2.05
2023-05-06T07:44:23.616Z,1.58
2023-05-06T07:46:51.225Z,1.70
2023-05-06T07:49:18.677Z,2.83
2023-05-06T07:51:45.941Z,1.85
2023-05-06T07:54:13.140Z,1.60
2023-05-06T07:56:40.575Z,1.85
2023-05-06T07:59:07.831Z,2.05
2023-05-06T08:01:35.102Z,2.60
2023-05-06T08:04:02.424Z,2.00
2023-05-06T08:06:29.814Z,2.00
2023-05-06T08:08:56.986Z,2.35
2023-05-06T08:11:24.230Z,1.90
2023-05-06T08:13:51.448Z,2.08
2023-05-06T08:16:18.737Z,2.03
2023-05-06T08:18:46.004Z,2.53
2023-05-06T08:21:13.297Z,2.05
2023-05-06T08:23:40.737Z,2.30
2023-05-06T08:26:08.087Z,2.55
2023-05-06T08:28:35.397Z,3.03
2023-05-06T08:31:02.755Z,2.47
2023-05-06T08:33:31.141Z,2.67
2023-05-06T08:35:58.437Z,2.60
2023-05-06T08:38:26.267Z,2.60
2023-05-06T08:40:53.570Z,3.00
2023-05-06T08:43:20.834Z,2.38
2023-05-06T08:45:48.141Z,2.55
2023-05-06T08:48:15.480Z,2.88
2023-05-06T08:50:43.313Z,2.20
2023-05-06T08:53:10.512Z,1.95
2023-05-06T08:55:37.738Z,2.28
2023-05-06T08:58:05.301Z,2.25
2023-05-06T09:00:32.527Z,2.10
2023-05-06T09:02:59.774Z,2.45
2023-05-06T09:05:27.171Z,2.40
2023-05-06T09:07:54.472Z,2.13
2023-05-06T09:10:22.476Z,2.30
2023-05-06T09:12:49.691Z,2.30
2023-05-06T09:15:17.061Z,1.77
2023-05-06T09:17:44.610Z,1.90
2023-05-06T09:20:12.017Z,1.73
2023-05-06T09:22:40.557Z,1.52
2023-05-06T09:25:08.011Z,1.70
2023-05-06T09:27:36.686Z,1.38
2023-05-06T09:30:04.031Z,1.95
2023-05-06T09:32:31.374Z,1.30
2023-05-06T09:34:58.667Z,1.30
2023-05-06T09:37:29.056Z,1.27
2023-05-06T09:39:56.373Z,1.15
2023-05-06T09:42:23.778Z,1.08
2023-05-06T09:44:51.023Z,1.33
2023-05-06T09:47:18.635Z,1.13
2023-05-06T09:49:46.002Z,1.30
2023-05-06T09:52:13.596Z,1.13
2023-05-06T09:54:41.136Z,1.13
2023-05-06T09:57:08.362Z,1.10
2023-05-06T09:59:36.181Z,0.80
2023-05-06T10:02:03.439Z,1.17
2023-05-06T10:04:30.988Z,0.75
2023-05-06T10:06:58.308Z,1.25
2023-05-06T10:09:25.963Z,0.70
2023-05-06T10:11:53.203Z,1.00
2023-05-06T10:14:20.501Z,0.90
2023-05-06T10:16:47.971Z,1.10
2023-05-06T10:19:15.837Z,0.90
2023-05-06T10:21:43.074Z,0.88
2023-05-06T10:24:10.262Z,0.80
2023-05-06T10:26:37.547Z,1.00
2023-05-06T10:29:04.981Z,1.17
2023-05-06T10:31:32.388Z,1.08
2023-05-06T10:33:59.689Z,1.98
2023-05-06T10:36:27.938Z,1.00
2023-05-06T10:38:56.513Z,1.10
2023-05-06T10:41:23.782Z,0.90
2023-05-06T10:43:56.819Z,1.10
2023-05-06T10:46:24.427Z,0.85
2023-05-06T10:48:51.578Z,1.38
2023-05-06T10:51:19.764Z,0.52
2023-05-06T10:53:48.036Z,1.33
2023-05-06T10:56:15.384Z,0.90
2023-05-06T10:58:42.581Z,1.00
2023-05-06T11:01:09.932Z,1.00
2023-05-06T11:03:37.591Z,1.27
2023-05-06T11:06:04.940Z,1.20
2023-05-06T11:08:32.154Z,1.20
2023-05-06T11:10:59.478Z,0.95
2023-05-06T11:13:27.671Z,1.65
2023-05-06T11:15:55.429Z,1.17
2023-05-06T11:18:22.716Z,1.15
2023-05-06T11:20:50.894Z,1.00
2023-05-06T11:23:19.054Z,1.75
2023-05-06T11:25:47.271Z,1.33
2023-05-06T11:28:14.620Z,1.05
2023-05-06T11:30:41.958Z,1.02
2023-05-06T11:33:09.148Z,1.00
2023-05-06T11:35:36.455Z,0.80
2023-05-06T11:38:03.855Z,0.60
2023-05-06T11:40:31.307Z,0.70
2023-05-06T11:42:58.598Z,1.08
2023-05-06T11:45:25.799Z,0.90
2023-05-06T11:47:53.224Z,0.70
2023-05-06T11:50:20.442Z,0.65
2023-05-06T11:52:47.664Z,0.70
2023-05-06T11:55:14.836Z,0.70
2023-05-06T11:57:42.316Z,0.60
2023-05-06T12:00:09.734Z,0.70
2023-05-06T12:02:39.200Z,0.68
2023-05-06T12:05:06.641Z,0.60
2023-05-06T12:07:33.859Z,0.85
2023-05-06T12:10:04.300Z,0.55
2023-05-06T12:12:32.468Z,1.35
2023-05-06T12:14:59.656Z,1.40
2023-05-06T12:17:26.910Z,0.82
2023-05-06T12:19:54.157Z,0.70
2023-05-06T12:22:21.373Z,0.90
2023-05-06T12:24:48.689Z,0.80
2023-05-06T12:27:15.988Z,0.60
2023-05-06T12:29:43.314Z,0.73
2023-05-06T12:32:10.831Z,0.98
2023-05-06T12:34:38.565Z,0.75
2023-05-06T12:37:06.056Z,0.57
2023-05-06T12:39:33.342Z,0.77
2023-05-06T12:42:00.688Z,0.68
2023-05-06T12:44:28.067Z,0.57
2023-05-06T12:46:55.536Z,0.40
2023-05-06T12:49:22.774Z,1.13
2023-05-06T12:51:49.945Z,0.63
2023-05-06T12:54:17.288Z,0.47
2023-05-06T12:56:45.094Z,0.30
2023-05-06T12:59:13.769Z,0.40
2023-05-06T13:01:40.976Z,0.50
2023-05-06T13:04:08.239Z,0.40
2023-05-06T13:06:36.012Z,0.50
2023-05-06T13:09:04.763Z,0.40
2023-05-06T13:11:31.943Z,0.45
2023-05-06T13:13:59.262Z,0.20
2023-05-06T13:16:26.550Z,0.17
2023-05-06T13:18:53.878Z,0.10
2023-05-06T13:21:21.092Z,0.30
2023-05-06T13:23:48.752Z,0.40
2023-05-06T13:26:16.037Z,0.45
2023-05-06T13:28:43.189Z,0.28
2023-05-06T13:31:10.537Z,0.30
2023-05-06T13:33:37.719Z,0.30
2023-05-06T13:36:05.624Z,0.50
2023-05-06T13:38:33.013Z,0.20
2023-05-06T13:41:00.237Z,0.30
2023-05-06T13:43:27.446Z,0.22
2023-05-06T13:45:54.827Z,0.10
2023-05-06T13:48:23.356Z,0.20
2023-05-06T13:50:50.716Z,0.20
2023-05-06T13:53:17.956Z,0.30
2023-05-06T13:55:45.641Z,0.25
2023-05-06T13:58:13.026Z,0.47
2023-05-06T14:00:40.900Z,0.43
2023-05-06T14:03:08.369Z,0.10
2023-05-06T14:05:35.645Z,0.50
2023-05-06T14:08:03.266Z,0.20
2023-05-06T14:10:30.628Z,0.20
2023-05-06T14:12:57.996Z,0.32
2023-05-06T14:15:25.372Z,0.20
2023-05-06T14:17:52.625Z,0.60
2023-05-06T14:20:19.965Z,0.20
2023-05-06T14:22:48.698Z,0.40
2023-05-06T14:25:16.041Z,0.35
2023-05-06T14:27:43.390Z,0.45
2023-05-06T14:30:10.717Z,0.47
2023-05-06T14:32:37.957Z,0.68
2023-05-06T14:35:05.260Z,0.35
2023-05-06T14:37:32.614Z,0.45
2023-05-06T14:39:59.850Z,0.88
2023-05-06T14:42:27.173Z,0.82
2023-05-06T14:44:55.072Z,0.55
2023-05-06T14:47:22.482Z,0.43
2023-05-06T14:49:50.436Z,0.60
2023-05-06T14:52:17.872Z,0.57
2023-05-06T14:54:45.179Z,0.50
2023-05-06T14:57:12.378Z,0.70
2023-05-06T14:59:39.664Z,0.60
2023-05-06T15:02:06.888Z,0.70
2023-05-06T15:04:34.156Z,0.88
2023-05-06T15:07:01.580Z,0.90
2023-05-06T15:09:28.990Z,0.55
2023-05-06T15:11:56.844Z,0.55
2023-05-06T15:14:24.601Z,0.32
2023-05-06T15:16:52.002Z,0.50
2023-05-06T15:19:19.270Z,0.65
2023-05-06T15:21:46.554Z,0.50
2023-05-06T15:24:13.836Z,0.70
2023-05-06T15:26:41.131Z,1.52
2023-05-06T15:29:08.351Z,0.50
2023-05-06T15:31:39.188Z,0.60
2023-05-06T15:34:06.636Z,0.50
2023-05-06T15:36:33.826Z,0.75
2023-05-06T15:39:01.285Z,0.85
2023-05-06T15:41:28.618Z,0.80
2023-05-06T15:43:56.020Z,0.63
2023-05-06T15:46:23.444Z,0.50
2023-05-06T15:49:02.289Z,0.50
2023-05-06T15:51:38.114Z,0.90
2023-05-06T15:54:05.327Z,0.90
2023-05-06T15:56:39.355Z,1.30
2023-05-06T15:59:08.577Z,1.33
2023-05-06T16:02:18.926Z,1.30
2023-05-06T16:04:23.234Z,1.70
2023-05-06T16:06:50.754Z,1.98
2023-05-06T16:09:18.001Z,2.10
2023-05-06T16:11:45.270Z,1.88
2023-05-06T16:14:12.629Z,2.13
2023-05-06T16:16:40.127Z,3.05
2023-05-06T16:19:07.442Z,1.73
2023-05-06T16:21:34.683Z,1.58
2023-05-06T16:24:02.542Z,1.77
2023-05-06T16:26:29.988Z,1.85
2023-05-06T16:28:58.760Z,2.15
2023-05-06T16:31:26.003Z,1.23
2023-05-06T16:33:53.274Z,1.35
2023-05-06T16:36:20.490Z,0.98
2023-05-06T16:38:47.763Z,4.50
2023-05-06T16:41:15.039Z,1.20
2023-05-06T16:43:42.257Z,2.00
2023-05-06T16:46:09.437Z,1.73
2023-05-06T16:48:36.823Z,2.28
2023-05-06T16:51:04.091Z,1.70
2023-05-06T16:53:31.522Z,2.45
2023-05-06T16:55:58.806Z,2.00
2023-05-06T16:58:26.334Z,3.55
2023-05-06T17:00:54.469Z,2.83
2023-05-06T17:03:21.834Z,2.70
2023-05-06T17:05:49.141Z,2.47
2023-05-06T17:08:16.683Z,3.28
2023-05-06T17:10:44.756Z,2.38
2023-05-06T17:13:12.131Z,2.78
2023-05-06T17:15:39.386Z,3.42
2023-05-06T17:18:06.707Z,2.70
2023-05-06T17:20:47.526Z,3.22
2023-05-06T17:23:21.196Z,3.78
2023-05-06T17:25:48.472Z,3.42
2023-05-06T17:28:16.858Z,3.53
2023-05-06T17:30:46.161Z,4.70
2023-05-06T17:33:13.469Z,3.53
2023-05-06T17:35:40.827Z,3.72
2023-05-06T17:38:08.092Z,3.28
2023-05-06T17:40:35.476Z,3.53
2023-05-06T17:43:02.796Z,4.22
2023-05-06T17:45:30.125Z,4.65
2023-05-06T17:47:57.434Z,3.40
2023-05-06T17:50:24.712Z,3.42
2023-05-06T17:52:52.981Z,3.65
2023-05-06T17:55:21.791Z,4.63
2023-05-06T17:57:49.471Z,5.07
2023-05-06T18:00:17.074Z,3.88
2023-05-06T18:02:44.438Z,4.78
2023-05-06T18:05:12.293Z,4.53
2023-05-06T18:07:39.703Z,5.88
2023-05-06T18:10:07.209Z,4.35
2023-05-06T18:12:34.529Z,4.60
2023-05-06T18:15:01.848Z,4.25
2023-05-06T18:17:29.061Z,5.65
2023-05-06T18:19:56.887Z,4.28
2023-05-06T18:22:24.271Z,7.32
2023-05-06T18:24:55.242Z,4.65
2023-05-06T18:27:22.804Z,4.30
2023-05-06T18:29:50.032Z,4.55
2023-05-06T18:32:17.244Z,6.28
2023-05-06T18:34:44.464Z,4.55
2023-05-06T18:37:11.699Z,4.60
2023-05-06T18:39:38.963Z,6.13
2023-05-06T18:42:06.229Z,5.13
2023-05-06T18:44:33.501Z,4.38
2023-05-06T18:47:00.803Z,4.55
2023-05-06T18:49:28.076Z,4.25
2023-05-06T18:51:56.466Z,4.35
2023-05-06T18:54:23.980Z,4.90
2023-05-06T18:56:51.963Z,4.60
2023-05-06T18:59:19.841Z,4.65
2023-05-06T19:01:47.306Z,4.53
2023-05-06T19:04:14.878Z,4.15
2023-05-06T19:06:42.293Z,6.00
2023-05-06T19:09:11.283Z,5.03
2023-05-06T19:11:38.740Z,7.63
2023-05-06T19:14:06.046Z,6.78
2023-05-06T19:16:33.326Z,5.55
2023-05-06T19:19:02.680Z,3.30
2023-05-06T19:21:29.972Z,3.92
2023-05-06T19:23:59.788Z,4.80
2023-05-06T19:26:27.059Z,4.18
2023-05-06T19:28:54.279Z,6.95
2023-05-06T19:31:21.604Z,4.60
2023-05-06T19:33:48.915Z,5.10
2023-05-06T19:36:16.710Z,3.80
2023-05-06T19:38:43.941Z,5.50
2023-05-06T19:41:11.209Z,5.25
2023-05-06T19:43:38.412Z,4.20
2023-05-06T19:46:06.447Z,4.72
2023-05-06T19:48:35.552Z,4.63
2023-05-06T19:51:04.084Z,7.35
2023-05-06T19:53:31.342Z,6.15
2023-05-06T19:55:59.384Z,6.00
2023-05-06T19:58:26.722Z,6.03
2023-05-06T20:00:54.081Z,4.03
2023-05-06T20:03:21.398Z,3.50
2023-05-06T20:05:48.895Z,3.83
2023-05-06T20:08:16.146Z,5.28
2023-05-06T20:10:43.493Z,4.50
2023-05-06T20:13:11.970Z,5.28
2023-05-06T20:15:39.395Z,4.85
2023-05-06T20:18:07.350Z,3.60
2023-05-06T20:20:34.653Z,3.97
2023-05-06T20:23:02.053Z,3.70
2023-05-06T20:25:29.482Z,4.10
2023-05-06T20:27:56.988Z,3.72
2023-05-06T20:30:24.292Z,3.53
2023-05-06T20:32:52.266Z,3.58
2023-05-06T20:35:19.617Z,3.78
2023-05-06T20:37:46.951Z,4.82
2023-05-06T20:40:14.270Z,4.10
2023-05-06T20:42:41.574Z,4.22
2023-05-06T20:45:09.388Z,5.65
2023-05-06T20:47:36.959Z,4.90
2023-05-06T20:50:04.247Z,4.68
2023-05-06T20:52:31.725Z,5.28
2023-05-06T20:54:59.120Z,5.75
2023-05-06T20:57:26.512Z,5.28
2023-05-06T20:59:53.774Z,4.93
2023-05-06T21:02:21.201Z,4.63
2023-05-06T21:04:48.533Z,5.30
2023-05-06T21:07:15.802Z,5.28
2023-05-06T21:09:43.118Z,5.95
2023-05-06T21:12:10.365Z,6.30
2023-05-06T21:14:37.651Z,4.97
2023-05-06T21:17:04.935Z,5.35
2023-05-06T21:19:32.180Z,5.97
2023-05-06T21:21:59.356Z,6.03
2023-05-06T21:24:26.797Z,7.25
2023-05-06T21:26:53.994Z,5.90
2023-05-06T21:29:21.660Z,6.18
2023-05-06T21:31:48.851Z,6.43
2023-05-06T21:34:16.358Z,5.70
2023-05-06T21:36:43.600Z,7.00
2023-05-06T21:39:10.913Z,6.72
2023-05-06T21:41:38.161Z,6.55
2023-05-06T21:44:05.467Z,6.95
2023-05-06T21:46:32.824Z,5.97
2023-05-06T21:49:00.372Z,5.55
2023-05-06T21:51:27.989Z,5.20
2023-05-06T21:53:55.292Z,6.05
2023-05-06T21:56:22.544Z,5.30
2023-05-06T21:58:49.860Z,5.43
2023-05-06T22:01:17.088Z,6.00
2023-05-06T22:03:44.885Z,5.80
2023-05-06T22:06:12.395Z,6.72
2023-05-06T22:08:39.837Z,6.45
2023-05-06T22:11:07.058Z,6.47
2023-05-06T22:13:34.465Z,5.90
2023-05-06T22:16:01.880Z,6.88
2023-05-06T22:18:30.166Z,6.75
2023-05-06T22:20:57.886Z,7.00
2023-05-06T22:23:25.407Z,9.15
2023-05-06T22:25:52.713Z,7.90
2023-05-06T22:28:20.057Z,8.18
2023-05-06T22:30:47.420Z,7.97
2023-05-06T22:33:14.724Z,8.23
2023-05-06T22:35:41.964Z,8.27
2023-05-06T22:38:09.273Z,8.20
2023-05-06T22:40:36.626Z,8.50
2023-05-06T22:43:03.920Z,9.02
2023-05-06T22:45:31.519Z,8.20
2023-05-06T22:47:59.042Z,9.02
2023-05-06T22:50:26.389Z,8.70
2023-05-06T22:52:53.730Z,9.25
2023-05-06T22:55:20.918Z,9.00
2023-05-06T22:57:53.906Z,9.13
2023-05-06T23:00:21.485Z,8.70
2023-05-06T23:02:48.780Z,8.63
2023-05-06T23:05:16.402Z,9.30
2023-05-06T23:07:43.626Z,8.45
2023-05-06T23:10:10.881Z,8.50
2023-05-06T23:12:38.208Z,7.78
2023-05-06T23:15:05.606Z,8.18
2023-05-06T23:17:32.826Z,7.35
2023-05-06T23:20:00.249Z,7.30
2023-05-06T23:22:27.588Z,7.07
2023-05-06T23:24:55.004Z,7.13
2023-05-06T23:27:22.251Z,7.60
2023-05-06T23:29:49.501Z,6.97
2023-05-06T23:32:16.889Z,7.75
2023-05-06T23:34:44.170Z,7.10
2023-05-06T23:37:12.076Z,6.72
2023-05-06T23:39:39.373Z,7.88
2023-05-06T23:42:09.089Z,8.43
2023-05-06T23:44:36.241Z,8.48
2023-05-06T23:47:03.535Z,9.63
2023-05-06T23:49:30.767Z,9.27
2023-05-06T23:51:58.229Z,9.73
2023-05-06T23:54:25.848Z,12.35
2023-05-06T23:56:53.078Z,10.57
2023-05-06T23:59:20.324Z,10.70
